createdAt,value
2024-03-26T00:00:44.809Z,-0.5
2024-03-26T00:01:51.949Z,-0.5
2024-03-26T00:02:59.014Z,-0.5
2024-03-26T00:04:05.685Z,-0.5
2024-03-26T00:05:12.715Z,-0.5
2024-03-26T00:06:19.885Z,-0.5
2024-03-26T00:07:26.920Z,-0.5
2024-03-26T00:08:34.076Z,-0.5
2024-03-26T00:09:40.590Z,-0.4
2024-03-26T00:10:47.765Z,-0.4
2024-03-26T00:13:01.976Z,-0.5
2024-03-26T00:14:09.040Z,-0.5
2024-03-26T00:15:15.677Z,-0.5
2024-03-26T00:16:22.784Z,-0.5
2024-03-26T00:17:29.894Z,-0.6
2024-03-26T00:18:36.963Z,-0.6
2024-03-26T00:19:43.570Z,-0.6
2024-03-26T00:20:50.637Z,-0.6
2024-03-26T00:21:57.787Z,-0.7
2024-03-26T00:23:04.845Z,-0.6
2024-03-26T00:24:11.910Z,-0.6
2024-03-26T00:25:18.600Z,-0.6
2024-03-26T00:26:25.721Z,-0.6
2024-03-26T00:27:32.817Z,-0.7
2024-03-26T00:28:42.182Z,-0.7
2024-03-26T00:29:46.989Z,-0.6
2024-03-26T00:30:54.130Z,-0.7
2024-03-26T00:32:00.659Z,-0.7
2024-03-26T00:33:07.785Z,-0.8
2024-03-26T00:34:14.897Z,-0.8
2024-03-26T00:35:21.983Z,-0.8
2024-03-26T00:36:28.601Z,-0.7
2024-03-26T00:37:35.684Z,-0.8
2024-03-26T00:38:42.841Z,-0.8
2024-03-26T00:39:49.869Z,-0.8
2024-03-26T00:40:57.026Z,-0.8
2024-03-26T00:42:03.652Z,-0.8
2024-03-26T00:43:10.692Z,-0.9
2024-03-26T00:44:17.770Z,-0.9
2024-03-26T00:45:24.950Z,-0.9
2024-03-26T00:46:32.011Z,-0.9
2024-03-26T00:47:38.629Z,-0.8
2024-03-26T00:48:45.719Z,-0.8
2024-03-26T00:49:52.791Z,-0.8
2024-03-26T00:50:59.885Z,-0.8
2024-03-26T00:52:07.090Z,-0.7
2024-03-26T00:53:13.554Z,-0.7
2024-03-26T00:54:22.666Z,-0.7
2024-03-26T00:55:27.863Z,-0.7
2024-03-26T00:56:34.868Z,-0.7
2024-03-26T00:57:42.274Z,-0.8
2024-03-26T00:58:48.701Z,-0.9
2024-03-26T00:59:55.716Z,-0.9
2024-03-26T01:01:02.820Z,-0.9
2024-03-26T01:02:09.957Z,-0.9
2024-03-26T01:03:17.051Z,-0.9
2024-03-26T01:04:23.563Z,-0.9
2024-03-26T01:05:30.662Z,-0.9
2024-03-26T01:06:37.795Z,-0.9
2024-03-26T01:07:44.868Z,-0.9
2024-03-26T01:08:51.971Z,-0.9
2024-03-26T01:09:58.662Z,-0.9
2024-03-26T01:11:05.755Z,-0.9
2024-03-26T01:12:12.772Z,-0.8
2024-03-26T01:13:19.963Z,-0.8
2024-03-26T01:14:27.053Z,-0.8
2024-03-26T01:16:40.755Z,-0.8
2024-03-26T01:17:47.888Z,-0.8
2024-03-26T01:18:54.958Z,-0.8
2024-03-26T01:20:02.049Z,-0.8
2024-03-26T01:21:08.616Z,-0.8
2024-03-26T01:22:15.847Z,-0.8
2024-03-26T01:23:22.792Z,-0.8
2024-03-26T01:24:29.987Z,-0.7
2024-03-26T01:25:37.048Z,-0.7
2024-03-26T01:27:50.754Z,-0.7
2024-03-26T01:28:57.826Z,-0.7
2024-03-26T01:30:04.969Z,-0.7
2024-03-26T01:31:12.054Z,-0.7
2024-03-26T01:32:18.671Z,-0.7
2024-03-26T01:33:25.870Z,-0.7
2024-03-26T01:34:33.346Z,-0.7
2024-03-26T01:35:40.028Z,-0.7
2024-03-26T01:36:47.095Z,-0.7
2024-03-26T01:37:54.196Z,-0.7
2024-03-26T01:39:00.757Z,-0.7
2024-03-26T01:40:07.917Z,-0.7
2024-03-26T01:41:14.987Z,-0.7
2024-03-26T01:42:22.016Z,-0.7
2024-03-26T01:43:28.683Z,-0.6
2024-03-26T01:44:35.887Z,-0.7
2024-03-26T01:45:42.874Z,-0.6
2024-03-26T01:46:50.005Z,-0.6
2024-03-26T01:47:57.108Z,-0.7
2024-03-26T01:49:03.621Z,-0.7
2024-03-26T01:50:10.776Z,-0.6
2024-03-26T01:51:17.927Z,-0.6
2024-03-26T01:52:25.028Z,-0.6
2024-03-26T01:53:32.083Z,-0.6
2024-03-26T01:54:38.653Z,-0.6
2024-03-26T01:55:45.759Z,-0.6
2024-03-26T01:56:52.875Z,-0.6
2024-03-26T01:58:00.323Z,-0.6
2024-03-26T01:59:07.107Z,-0.6
2024-03-26T02:00:13.673Z,-0.6
2024-03-26T02:01:20.772Z,-0.6
2024-03-26T02:02:27.953Z,-0.6
2024-03-26T02:03:35.105Z,-0.6
2024-03-26T02:04:42.124Z,-0.6
2024-03-26T02:05:48.737Z,-0.7
2024-03-26T02:06:55.863Z,-0.6
2024-03-26T02:08:02.915Z,-0.6
2024-03-26T02:09:10.033Z,-0.7
2024-03-26T02:10:17.103Z,-0.7
2024-03-26T02:11:23.683Z,-0.7
2024-03-26T02:12:30.849Z,-0.7
2024-03-26T02:13:37.899Z,-0.7
2024-03-26T02:14:44.976Z,-0.7
2024-03-26T02:15:52.119Z,-0.8
2024-03-26T02:16:58.726Z,-0.8
2024-03-26T02:18:05.843Z,-0.9
2024-03-26T02:20:20.020Z,-0.9
2024-03-26T02:21:27.321Z,-0.9
2024-03-26T02:22:33.711Z,-0.9
2024-03-26T02:23:40.809Z,-1
2024-03-26T02:24:47.875Z,-1
2024-03-26T02:25:55.014Z,-0.9
2024-03-26T02:27:02.130Z,-1
2024-03-26T02:28:08.702Z,-1
2024-03-26T02:29:15.814Z,-1
2024-03-26T02:30:22.941Z,-0.9
2024-03-26T02:31:30.104Z,-0.9
2024-03-26T02:32:37.263Z,-0.9
2024-03-26T02:33:43.722Z,-0.9
2024-03-26T02:34:50.852Z,-0.9
2024-03-26T02:35:57.939Z,-0.9
2024-03-26T02:37:05.046Z,-1
2024-03-26T02:38:12.147Z,-0.9
2024-03-26T02:39:19.289Z,-0.9
2024-03-26T02:40:25.796Z,-1
2024-03-26T02:41:32.948Z,-0.9
2024-03-26T02:42:40.086Z,-0.9
2024-03-26T02:43:47.133Z,-0.9
2024-03-26T02:44:53.734Z,-0.9
2024-03-26T02:46:00.838Z,-0.9
2024-03-26T02:47:07.904Z,-0.9
2024-03-26T02:48:15.009Z,-0.9
2024-03-26T02:49:22.143Z,-0.8
2024-03-26T02:50:28.817Z,-0.8
2024-03-26T02:51:35.899Z,-0.8
2024-03-26T02:52:42.914Z,-0.8
2024-03-26T02:53:50.071Z,-0.8
2024-03-26T02:56:03.788Z,-0.8
2024-03-26T02:57:10.868Z,-0.8
2024-03-26T02:58:18.067Z,-0.8
2024-03-26T02:59:25.028Z,-0.8
2024-03-26T03:00:32.181Z,-0.8
2024-03-26T03:01:38.832Z,-0.8
2024-03-26T03:02:47.358Z,-0.8
2024-03-26T03:03:52.946Z,-0.9
2024-03-26T03:05:00.176Z,-0.8
2024-03-26T03:06:07.226Z,-0.9
2024-03-26T03:07:13.815Z,-0.9
2024-03-26T03:08:20.889Z,-0.9
2024-03-26T03:09:28.011Z,-0.9
2024-03-26T03:10:35.105Z,-0.9
2024-03-26T03:11:42.192Z,-0.9
2024-03-26T03:12:48.816Z,-0.9
2024-03-26T03:13:55.923Z,-0.9
2024-03-26T03:15:02.946Z,-0.9
2024-03-26T03:16:10.120Z,-0.9
2024-03-26T03:17:17.201Z,-0.9
2024-03-26T03:18:23.839Z,-0.9
2024-03-26T03:19:30.950Z,-0.9
2024-03-26T03:20:38.020Z,-0.9
2024-03-26T03:21:45.056Z,-0.9
2024-03-26T03:23:58.744Z,-0.9
2024-03-26T03:25:05.893Z,-0.9
2024-03-26T03:26:13.001Z,-0.9
2024-03-26T03:27:20.111Z,-1
2024-03-26T03:28:27.241Z,-0.9
2024-03-26T03:30:40.944Z,-0.9
2024-03-26T03:31:48.085Z,-0.9
2024-03-26T03:32:55.073Z,-0.9
2024-03-26T03:34:02.251Z,-0.9
2024-03-26T03:35:08.888Z,-0.9
2024-03-26T03:36:15.952Z,-0.9
2024-03-26T03:37:23.029Z,-0.9
2024-03-26T03:38:30.156Z,-0.9
2024-03-26T03:39:37.288Z,-0.9
2024-03-26T03:40:43.893Z,-0.9
2024-03-26T03:41:51.499Z,-1
2024-03-26T03:42:58.061Z,-0.9
2024-03-26T03:44:05.144Z,-1
2024-03-26T03:45:12.204Z,-1
2024-03-26T03:46:18.885Z,-1.1
2024-03-26T03:47:26.035Z,-1.2
2024-03-26T03:48:33.021Z,-1.1
2024-03-26T03:49:40.198Z,-1.2
2024-03-26T03:50:47.234Z,-1.2
2024-03-26T03:51:53.791Z,-1.2
2024-03-26T03:53:00.936Z,-1.2
2024-03-26T03:54:08.096Z,-1.2
2024-03-26T03:55:15.139Z,-1.3
2024-03-26T03:56:22.252Z,-1.2
2024-03-26T03:57:28.824Z,-1.2
2024-03-26T03:58:35.948Z,-1.2
2024-03-26T03:59:43.045Z,-1.2
2024-03-26T04:00:50.210Z,-1.2
2024-03-26T04:01:57.302Z,-1.2
2024-03-26T04:03:03.847Z,-1.2
2024-03-26T04:04:10.954Z,-1.2
2024-03-26T04:05:18.089Z,-1.2
2024-03-26T04:06:25.130Z,-1.1
2024-03-26T04:07:32.385Z,-1.1
2024-03-26T04:08:38.902Z,-1.2
2024-03-26T04:09:46.018Z,-1.2
2024-03-26T04:10:53.442Z,-1.2
2024-03-26T04:12:00.558Z,-1.2
2024-03-26T04:13:06.770Z,-1.2
2024-03-26T04:14:13.862Z,-1.2
2024-03-26T04:15:20.980Z,-1.2
2024-03-26T04:16:28.107Z,-1.2
2024-03-26T04:17:35.195Z,-1.2
2024-03-26T04:18:42.327Z,-1.3
2024-03-26T04:19:48.890Z,-1.3
2024-03-26T04:20:55.987Z,-1.3
2024-03-26T04:22:03.088Z,-1.4
2024-03-26T04:24:17.344Z,-1.4
2024-03-26T04:25:23.875Z,-1.5
2024-03-26T04:26:30.980Z,-1.5
2024-03-26T04:27:38.134Z,-1.5
2024-03-26T04:28:45.159Z,-1.5
2024-03-26T04:29:51.879Z,-1.5
2024-03-26T04:30:58.883Z,-1.5
2024-03-26T04:32:06.044Z,-1.5
2024-03-26T04:33:13.117Z,-1.5
2024-03-26T04:34:20.191Z,-1.5
2024-03-26T04:35:26.848Z,-1.5
2024-03-26T04:36:33.866Z,-1.5
2024-03-26T04:37:41.033Z,-1.5
2024-03-26T04:38:48.138Z,-1.5
2024-03-26T04:39:55.166Z,-1.6
2024-03-26T04:41:01.889Z,-1.5
2024-03-26T04:42:08.883Z,-1.6
2024-03-26T04:43:16.036Z,-1.5
2024-03-26T04:44:23.167Z,-1.6
2024-03-26T04:45:30.293Z,-1.5
2024-03-26T04:46:36.885Z,-1.5
2024-03-26T04:47:43.930Z,-1.6
2024-03-26T04:48:50.972Z,-1.6
2024-03-26T04:49:58.142Z,-1.6
2024-03-26T04:51:05.220Z,-1.7
2024-03-26T04:52:12.312Z,-1.7
2024-03-26T04:53:18.958Z,-1.7
2024-03-26T04:54:26.076Z,-1.7
2024-03-26T04:55:33.157Z,-1.7
2024-03-26T04:56:40.227Z,-1.7
2024-03-26T04:57:47.426Z,-1.8
2024-03-26T04:58:53.882Z,-1.8
2024-03-26T05:00:01.551Z,-1.8
2024-03-26T05:01:08.222Z,-1.8
2024-03-26T05:02:15.263Z,-1.8
2024-03-26T05:03:21.855Z,-1.8
2024-03-26T05:04:28.980Z,-1.7
2024-03-26T05:05:36.098Z,-1.7
2024-03-26T05:06:43.163Z,-1.7
2024-03-26T05:07:50.206Z,-1.7
2024-03-26T05:08:56.902Z,-1.8
2024-03-26T05:10:05.662Z,-1.8
2024-03-26T05:11:11.046Z,-1.8
2024-03-26T05:12:18.141Z,-1.8
2024-03-26T05:13:25.239Z,-1.8
2024-03-26T05:14:31.845Z,-1.9
2024-03-26T05:15:38.928Z,-1.8
2024-03-26T05:16:46.093Z,-1.8
2024-03-26T05:17:53.186Z,-1.8
2024-03-26T05:19:00.297Z,-1.8
2024-03-26T05:20:06.887Z,-1.8
2024-03-26T05:21:14.033Z,-1.8
2024-03-26T05:22:21.173Z,-1.8
2024-03-26T05:23:28.198Z,-1.8
2024-03-26T05:24:35.328Z,-1.8
2024-03-26T05:25:41.872Z,-1.8
2024-03-26T05:26:48.940Z,-1.8
2024-03-26T05:27:56.111Z,-1.8
2024-03-26T05:29:03.179Z,-1.8
2024-03-26T05:30:10.269Z,-1.9
2024-03-26T05:31:16.894Z,-1.8
2024-03-26T05:32:24.179Z,-1.9
2024-03-26T05:33:32.161Z,-1.9
2024-03-26T05:34:38.168Z,-1.8
2024-03-26T05:35:45.273Z,-1.9
2024-03-26T05:36:51.830Z,-1.8
2024-03-26T05:37:58.996Z,-1.8
2024-03-26T05:39:06.112Z,-1.8
2024-03-26T05:40:13.186Z,-1.8
2024-03-26T05:41:20.282Z,-1.8
2024-03-26T05:42:26.855Z,-1.8
2024-03-26T05:43:34.021Z,-1.8
2024-03-26T05:44:41.104Z,-1.8
2024-03-26T05:45:48.215Z,-1.8
2024-03-26T05:46:55.258Z,-1.8
2024-03-26T05:48:01.843Z,-1.8
2024-03-26T05:50:16.203Z,-1.8
2024-03-26T05:52:30.333Z,-1.8
2024-03-26T05:53:36.990Z,-1.8
2024-03-26T05:54:44.012Z,-1.8
2024-03-26T05:55:51.085Z,-1.8
2024-03-26T05:56:58.256Z,-1.8
2024-03-26T05:58:05.287Z,-1.9
2024-03-26T05:59:11.899Z,-1.8
2024-03-26T06:00:19.062Z,-1.9
2024-03-26T06:01:26.126Z,-1.9
2024-03-26T06:02:33.239Z,-1.8
2024-03-26T06:03:40.336Z,-1.9
2024-03-26T06:04:46.960Z,-1.9
2024-03-26T06:05:54.039Z,-1.8
2024-03-26T06:07:01.089Z,-1.9
2024-03-26T06:08:08.270Z,-1.8
2024-03-26T06:09:15.340Z,-1.8
2024-03-26T06:10:22.469Z,-1.8
2024-03-26T06:11:29.046Z,-1.9
2024-03-26T06:12:36.216Z,-1.8
2024-03-26T06:13:43.228Z,-1.8
2024-03-26T06:14:50.320Z,-1.8
2024-03-26T06:15:57.008Z,-1.8
2024-03-26T06:17:04.039Z,-1.9
2024-03-26T06:18:11.090Z,-1.8
2024-03-26T06:19:18.311Z,-1.9
2024-03-26T06:20:25.362Z,-1.8
2024-03-26T06:21:31.929Z,-1.8
2024-03-26T06:22:39.031Z,-1.8
2024-03-26T06:23:46.189Z,-1.8
2024-03-26T06:24:53.212Z,-1.8
2024-03-26T06:26:00.369Z,-1.8
2024-03-26T06:27:08.022Z,-1.8
2024-03-26T06:28:14.577Z,-1.8
2024-03-26T06:29:21.155Z,-1.7
2024-03-26T06:30:28.313Z,-1.7
2024-03-26T06:31:35.444Z,-1.8
2024-03-26T06:32:41.979Z,-1.7
2024-03-26T06:33:49.093Z,-1.8
2024-03-26T06:34:56.164Z,-1.8
2024-03-26T06:36:03.291Z,-1.7
2024-03-26T06:37:10.337Z,-1.7
2024-03-26T06:38:17.010Z,-1.7
2024-03-26T06:39:24.031Z,-1.7
2024-03-26T06:40:31.195Z,-1.7
2024-03-26T06:41:38.258Z,-1.7
2024-03-26T06:42:45.406Z,-1.7
2024-03-26T06:43:51.923Z,-1.7
2024-03-26T06:44:59.103Z,-1.7
2024-03-26T06:46:06.177Z,-1.7
2024-03-26T06:47:13.251Z,-1.8
2024-03-26T06:48:20.351Z,-1.8
2024-03-26T06:49:26.986Z,-1.8
2024-03-26T06:50:34.124Z,-1.8
2024-03-26T06:51:43.108Z,-1.7
2024-03-26T06:53:55.475Z,-1.7
2024-03-26T06:55:02.005Z,-1.7
2024-03-26T06:56:09.076Z,-1.6
2024-03-26T06:57:16.177Z,-1.6
2024-03-26T06:58:23.262Z,-1.6
2024-03-26T06:59:30.444Z,-1.6
2024-03-26T07:00:36.987Z,-1.6
2024-03-26T07:01:44.124Z,-1.6
2024-03-26T07:02:51.265Z,-1.6
2024-03-26T07:03:58.302Z,-1.5
2024-03-26T07:05:05.436Z,-1.5
2024-03-26T07:06:11.974Z,-1.4
2024-03-26T07:07:19.151Z,-1.4
2024-03-26T07:08:26.367Z,-1.4
2024-03-26T07:09:33.294Z,-1.3
2024-03-26T07:10:40.412Z,-1.3
2024-03-26T07:11:47.014Z,-1.3
2024-03-26T07:12:55.554Z,-1.2
2024-03-26T07:14:01.225Z,-1.3
2024-03-26T07:15:08.363Z,-1.2
2024-03-26T07:16:15.463Z,-1.2
2024-03-26T07:17:22.046Z,-1.2
2024-03-26T07:18:29.121Z,-1.1
2024-03-26T07:20:43.333Z,-1
2024-03-26T07:21:50.440Z,-1
2024-03-26T07:22:57.025Z,-0.9
2024-03-26T07:24:04.124Z,-0.8
2024-03-26T07:25:11.222Z,-0.7
2024-03-26T07:26:18.376Z,-0.6
2024-03-26T07:27:25.498Z,-0.4
2024-03-26T07:28:32.032Z,-0.1
2024-03-26T07:29:39.200Z,0.2
2024-03-26T07:30:46.286Z,0.5
2024-03-26T07:31:53.383Z,0.8
2024-03-26T07:33:00.445Z,1.1
2024-03-26T07:34:07.042Z,1.3
2024-03-26T07:35:14.123Z,1.6
2024-03-26T07:36:21.292Z,1.9
2024-03-26T07:37:28.349Z,2.1
2024-03-26T07:38:35.537Z,2.3
2024-03-26T07:39:42.010Z,2.6
2024-03-26T07:40:49.212Z,2.9
2024-03-26T07:41:56.317Z,3.1
2024-03-26T07:43:06.595Z,3.4
2024-03-26T07:44:10.492Z,3.5
2024-03-26T07:45:17.055Z,3.7
2024-03-26T07:46:24.193Z,3.9
2024-03-26T07:47:31.216Z,4.1
2024-03-26T07:48:38.462Z,4.2
2024-03-26T07:49:45.580Z,4.5
2024-03-26T07:50:52.095Z,4.6
2024-03-26T07:51:59.154Z,4.8
2024-03-26T07:53:06.320Z,5
2024-03-26T07:54:13.482Z,5.2
2024-03-26T07:55:20.475Z,5.3
2024-03-26T07:57:34.262Z,5.4
2024-03-26T07:58:41.300Z,5.5
2024-03-26T07:59:48.370Z,5.7
2024-03-26T08:00:55.488Z,5.9
2024-03-26T08:02:02.034Z,6
2024-03-26T08:03:09.246Z,6.1
2024-03-26T08:04:16.322Z,6.3
2024-03-26T08:05:23.356Z,6.4
2024-03-26T08:06:30.456Z,6.5
2024-03-26T08:07:37.130Z,6.6
2024-03-26T08:08:44.216Z,6.7
2024-03-26T08:09:51.252Z,6.9
2024-03-26T08:10:58.424Z,6.8
2024-03-26T08:12:05.627Z,6.8
2024-03-26T08:13:12.095Z,6.8
2024-03-26T08:14:19.182Z,6.8
2024-03-26T08:15:26.357Z,7
2024-03-26T08:16:33.375Z,7.1
2024-03-26T08:17:40.504Z,7.2
2024-03-26T08:18:47.184Z,7.3
2024-03-26T08:19:54.266Z,7.5
2024-03-26T08:21:01.330Z,7.6
2024-03-26T08:22:08.445Z,7.8
2024-03-26T08:23:15.591Z,7.8
2024-03-26T08:24:22.138Z,7.8
2024-03-26T08:25:29.279Z,7.8
2024-03-26T08:26:36.316Z,7.9
2024-03-26T08:27:43.433Z,8
2024-03-26T08:28:50.609Z,8.1
2024-03-26T08:29:57.226Z,8
2024-03-26T08:31:04.191Z,8
2024-03-26T08:32:11.360Z,8
2024-03-26T08:33:18.454Z,8
2024-03-26T08:34:25.525Z,8
2024-03-26T08:35:32.117Z,7.8
2024-03-26T08:36:39.260Z,7.7
2024-03-26T08:37:46.385Z,7.6
2024-03-26T08:38:53.495Z,7.5
2024-03-26T08:40:00.571Z,7.4
2024-03-26T08:41:07.156Z,7.3
2024-03-26T08:42:14.254Z,7.1
2024-03-26T08:43:21.379Z,7
2024-03-26T08:44:28.571Z,6.8
2024-03-26T08:45:34.994Z,6.7
2024-03-26T08:46:42.197Z,6.6
2024-03-26T08:48:56.373Z,6.1
2024-03-26T08:50:03.525Z,5.8
2024-03-26T08:51:10.568Z,5.7
2024-03-26T08:52:17.211Z,5.6
2024-03-26T08:53:24.266Z,5.4
2024-03-26T08:54:31.373Z,5.4
2024-03-26T08:55:38.508Z,5.4
2024-03-26T08:56:45.615Z,5.3
2024-03-26T08:57:52.195Z,5.1
2024-03-26T08:58:59.291Z,5.1
2024-03-26T09:01:13.493Z,5.2
2024-03-26T09:02:20.085Z,5.2
2024-03-26T09:03:27.215Z,5.2
2024-03-26T09:04:34.291Z,5.2
2024-03-26T09:05:41.384Z,5.3
2024-03-26T09:06:48.568Z,5.2
2024-03-26T09:07:55.066Z,5.3
2024-03-26T09:09:02.219Z,5.4
2024-03-26T09:10:09.304Z,5.6
2024-03-26T09:11:16.383Z,5.7
2024-03-26T09:12:23.447Z,5.8
2024-03-26T09:13:32.033Z,5.9
2024-03-26T09:14:37.196Z,6.1
2024-03-26T09:15:44.245Z,6.2
2024-03-26T09:16:51.360Z,6.3
2024-03-26T09:17:58.550Z,6.2
2024-03-26T09:19:05.533Z,6.3
2024-03-26T09:20:12.252Z,6.3
2024-03-26T09:21:19.305Z,6.4
2024-03-26T09:22:26.427Z,6.4
2024-03-26T09:23:33.504Z,6.4
2024-03-26T09:24:49.441Z,6.3
2024-03-26T09:25:47.190Z,6.3
2024-03-26T09:26:54.346Z,6.3
2024-03-26T09:28:01.399Z,6.3
2024-03-26T09:29:08.524Z,6.3
2024-03-26T09:30:15.099Z,6.3
2024-03-26T09:31:22.198Z,6.3
2024-03-26T09:32:29.351Z,6.3
2024-03-26T09:33:36.472Z,6.1
2024-03-26T09:34:43.576Z,6.2
2024-03-26T09:35:50.093Z,6.3
2024-03-26T09:36:57.272Z,6.4
2024-03-26T09:38:04.351Z,6.6
2024-03-26T09:39:11.448Z,6.7
2024-03-26T09:40:18.567Z,6.6
2024-03-26T09:41:25.180Z,6.5
2024-03-26T09:42:32.332Z,6.3
2024-03-26T09:43:39.320Z,6.3
2024-03-26T09:44:52.425Z,6.4
2024-03-26T09:45:53.559Z,6.5
2024-03-26T09:47:00.153Z,6.7
2024-03-26T09:48:07.287Z,6.8
2024-03-26T09:49:14.349Z,6.8
2024-03-26T09:50:21.393Z,7
2024-03-26T09:51:28.541Z,7.1
2024-03-26T09:52:35.165Z,7.2
2024-03-26T09:53:42.186Z,7.3
2024-03-26T09:54:49.328Z,7.3
2024-03-26T09:55:56.489Z,7.5
2024-03-26T09:57:03.557Z,7.5
2024-03-26T09:58:10.205Z,7.5
2024-03-26T09:59:17.278Z,7.6
2024-03-26T10:00:24.408Z,7.7
2024-03-26T10:01:31.478Z,7.5
2024-03-26T10:02:38.575Z,7.5
2024-03-26T10:04:52.235Z,7.5
2024-03-26T10:05:59.397Z,7.6
2024-03-26T10:07:06.528Z,7.7
2024-03-26T10:08:13.589Z,7.7
2024-03-26T10:09:20.167Z,7.8
2024-03-26T10:10:27.237Z,7.9
2024-03-26T10:11:34.379Z,8
2024-03-26T10:12:41.478Z,8.1
2024-03-26T10:13:48.598Z,8.2
2024-03-26T10:14:55.144Z,8.2
2024-03-26T10:17:09.355Z,8.3
2024-03-26T10:18:16.457Z,8.4
2024-03-26T10:19:23.052Z,8.4
2024-03-26T10:20:30.200Z,8.5
2024-03-26T10:21:37.256Z,8.6
2024-03-26T10:22:44.420Z,8.5
2024-03-26T10:23:51.430Z,8.7
2024-03-26T10:24:58.104Z,8.8
2024-03-26T10:26:05.181Z,8.8
2024-03-26T10:27:12.277Z,8.8
2024-03-26T10:28:19.404Z,8.8
2024-03-26T10:29:26.553Z,8.8
2024-03-26T10:30:33.063Z,8.8
2024-03-26T10:31:40.156Z,8.7
2024-03-26T10:32:47.285Z,8.5
2024-03-26T10:33:54.414Z,8.4
2024-03-26T10:35:01.534Z,8.2
2024-03-26T10:36:08.073Z,8
2024-03-26T10:37:15.194Z,7.8
2024-03-26T10:38:22.250Z,7.7
2024-03-26T10:39:29.462Z,7.5
2024-03-26T10:40:36.569Z,7.4
2024-03-26T10:41:43.609Z,7.3
2024-03-26T10:42:50.182Z,7.2
2024-03-26T10:43:57.325Z,7.1
2024-03-26T10:45:04.527Z,7
2024-03-26T10:46:11.527Z,6.8
2024-03-26T10:47:18.093Z,6.8
2024-03-26T10:48:25.196Z,6.8
2024-03-26T10:49:32.395Z,6.8
2024-03-26T10:50:39.439Z,6.8
2024-03-26T10:51:46.606Z,6.8
2024-03-26T10:52:53.636Z,6.8
2024-03-26T10:54:00.301Z,6.8
2024-03-26T10:55:07.372Z,6.7
2024-03-26T10:56:14.472Z,6.7
2024-03-26T10:57:21.542Z,6.7
2024-03-26T10:58:28.203Z,6.7
2024-03-26T10:59:35.209Z,6.7
2024-03-26T11:00:42.369Z,6.7
2024-03-26T11:01:49.516Z,6.7
2024-03-26T11:02:56.560Z,6.7
2024-03-26T11:04:03.111Z,6.8
2024-03-26T11:05:10.255Z,7
2024-03-26T11:06:17.327Z,7
2024-03-26T11:08:31.612Z,7.1
2024-03-26T11:09:38.135Z,7.1
2024-03-26T11:10:45.219Z,7.2
2024-03-26T11:11:52.344Z,7.1
2024-03-26T11:12:59.466Z,7
2024-03-26T11:14:06.546Z,7
2024-03-26T11:15:13.099Z,6.9
2024-03-26T11:16:20.225Z,6.8
2024-03-26T11:17:27.319Z,6.8
2024-03-26T11:18:34.460Z,6.8
2024-03-26T11:19:41.593Z,6.8
2024-03-26T11:20:48.144Z,6.8
2024-03-26T11:21:55.236Z,6.7
2024-03-26T11:23:02.353Z,6.7
2024-03-26T11:24:09.438Z,6.8
2024-03-26T11:25:16.629Z,6.8
2024-03-26T11:26:23.192Z,6.8
2024-03-26T11:27:30.250Z,6.7
2024-03-26T11:28:37.399Z,6.8
2024-03-26T11:29:44.428Z,6.8
2024-03-26T11:30:51.568Z,6.8
2024-03-26T11:31:58.159Z,6.8
2024-03-26T11:33:05.259Z,6.8
2024-03-26T11:34:12.329Z,6.8
2024-03-26T11:35:19.472Z,7
2024-03-26T11:36:26.638Z,7
2024-03-26T11:37:33.171Z,7.1
2024-03-26T11:38:40.328Z,7.2
2024-03-26T11:39:47.419Z,7.2
2024-03-26T11:40:54.525Z,7.2
2024-03-26T11:42:01.672Z,7.1
2024-03-26T11:48:43.249Z,7.2
2024-03-26T11:49:50.271Z,7.3
2024-03-26T11:50:57.379Z,7.4
2024-03-26T11:52:04.528Z,7.6
2024-03-26T11:53:11.621Z,7.7
2024-03-26T11:54:18.189Z,7.8
2024-03-26T11:55:25.438Z,7.8
2024-03-26T11:56:32.415Z,8
2024-03-26T11:57:41.332Z,8.1
2024-03-26T11:58:46.640Z,8.2
2024-03-26T11:59:53.205Z,8.2
2024-03-26T12:01:00.363Z,8.3
2024-03-26T12:02:07.454Z,8.4
2024-03-26T12:03:14.603Z,8.3
2024-03-26T12:04:21.625Z,8.3
2024-03-26T12:05:28.267Z,8.2
2024-03-26T12:06:35.326Z,8.2
2024-03-26T12:07:42.371Z,8.2
2024-03-26T12:08:49.541Z,8.1
2024-03-26T12:09:56.161Z,8
2024-03-26T12:12:10.292Z,7.9
2024-03-26T12:13:17.404Z,7.7
2024-03-26T12:14:24.532Z,7.7
2024-03-26T12:15:31.140Z,7.7
2024-03-26T12:16:38.260Z,7.7
2024-03-26T12:17:45.338Z,7.6
2024-03-26T12:18:52.442Z,7.5
2024-03-26T12:19:59.564Z,7.5
2024-03-26T12:21:06.708Z,7.5
2024-03-26T12:22:13.195Z,7.4
2024-03-26T12:23:20.358Z,7.4
2024-03-26T12:24:27.492Z,7.4
2024-03-26T12:25:34.512Z,7.4
2024-03-26T12:26:41.127Z,7.5
2024-03-26T12:27:48.388Z,7.6
2024-03-26T12:28:55.390Z,7.6
2024-03-26T12:30:02.481Z,7.6
2024-03-26T12:31:09.547Z,7.7
2024-03-26T12:32:16.731Z,7.7
2024-03-26T12:33:23.247Z,7.7
2024-03-26T12:34:30.362Z,7.7
2024-03-26T12:35:37.444Z,7.6
2024-03-26T12:36:44.565Z,7.6
2024-03-26T12:37:51.245Z,7.6
2024-03-26T12:38:58.274Z,7.6
2024-03-26T12:40:05.353Z,7.7
2024-03-26T12:41:12.463Z,7.6
2024-03-26T12:42:19.607Z,7.6
2024-03-26T12:43:26.200Z,7.6
2024-03-26T12:44:33.286Z,7.5
2024-03-26T12:45:40.404Z,7.5
2024-03-26T12:46:47.560Z,7.4
2024-03-26T12:47:54.607Z,7.3
2024-03-26T12:49:01.217Z,7.4
2024-03-26T12:50:08.251Z,7.3
2024-03-26T12:51:15.374Z,7.3
2024-03-26T12:52:22.458Z,7.3
2024-03-26T12:53:32.175Z,7.3
2024-03-26T12:54:36.215Z,7.3
2024-03-26T12:55:43.298Z,7.3
2024-03-26T12:56:50.390Z,7.3
2024-03-26T12:57:57.473Z,7.3
2024-03-26T12:59:05.124Z,7.3
2024-03-26T13:00:11.197Z,7.2
2024-03-26T13:01:18.276Z,7.1
2024-03-26T13:02:25.391Z,7.2
2024-03-26T13:03:32.450Z,7.1
2024-03-26T13:04:39.588Z,7.1
2024-03-26T13:05:46.224Z,7.2
2024-03-26T13:06:53.396Z,7.2
2024-03-26T13:08:00.388Z,7.1
2024-03-26T13:09:07.522Z,7.1
2024-03-26T13:10:14.574Z,7.1
2024-03-26T13:11:21.218Z,7.1
2024-03-26T13:13:35.400Z,7.2
2024-03-26T13:15:49.680Z,7.3
2024-03-26T13:16:56.230Z,7.3
2024-03-26T13:18:03.326Z,7.4
2024-03-26T13:19:10.422Z,7.4
2024-03-26T13:20:17.874Z,7.4
2024-03-26T13:21:24.580Z,7.4
2024-03-26T13:22:31.296Z,7.3
2024-03-26T13:23:38.314Z,7.3
2024-03-26T13:24:45.483Z,7.4
2024-03-26T13:25:54.202Z,7.5
2024-03-26T13:26:59.662Z,7.5
2024-03-26T13:28:06.231Z,7.5
2024-03-26T13:29:13.322Z,7.6
2024-03-26T13:30:27.450Z,7.6
2024-03-26T13:31:27.638Z,7.5
2024-03-26T13:32:34.641Z,7.5
2024-03-26T13:33:41.193Z,7.5
2024-03-26T13:34:48.335Z,7.5
2024-03-26T13:35:57.429Z,7.5
2024-03-26T13:37:02.545Z,7.6
2024-03-26T13:38:09.688Z,7.6
2024-03-26T13:39:16.279Z,7.5
2024-03-26T13:40:40.978Z,7.5
2024-03-26T13:41:30.402Z,7.4
2024-03-26T13:42:37.529Z,7.3
2024-03-26T13:43:44.648Z,7.3
2024-03-26T13:44:51.239Z,7.2
2024-03-26T13:45:58.366Z,7.2
2024-03-26T13:47:05.483Z,7.2
2024-03-26T13:48:12.593Z,7.1
2024-03-26T13:49:19.693Z,7.1
2024-03-26T13:50:26.226Z,7.1
2024-03-26T13:51:33.430Z,7.1
2024-03-26T13:52:40.493Z,7.1
2024-03-26T13:53:47.624Z,7.2
2024-03-26T13:54:54.270Z,7.1
2024-03-26T13:56:01.265Z,7.2
2024-03-26T13:57:08.409Z,7.1
2024-03-26T13:58:15.542Z,7.1
2024-03-26T13:59:22.570Z,7
2024-03-26T14:00:29.174Z,7
2024-03-26T14:01:36.412Z,6.8
2024-03-26T14:02:43.410Z,6.8
2024-03-26T14:03:50.501Z,6.8
2024-03-26T14:04:57.604Z,6.8
2024-03-26T14:06:04.292Z,6.8
2024-03-26T14:07:11.268Z,6.9
2024-03-26T14:08:21.264Z,7
2024-03-26T14:09:25.515Z,7
2024-03-26T14:10:32.572Z,7.2
2024-03-26T14:11:39.170Z,7.2
2024-03-26T14:12:46.314Z,7.3
2024-03-26T14:13:53.903Z,7.4
2024-03-26T14:15:00.544Z,7.5
2024-03-26T14:16:07.591Z,7.6
2024-03-26T14:17:14.225Z,7.6
2024-03-26T14:19:28.425Z,7.7
2024-03-26T14:20:35.539Z,7.7
2024-03-26T14:21:42.599Z,7.7
2024-03-26T14:22:49.235Z,7.7
2024-03-26T14:23:56.294Z,7.8
2024-03-26T14:25:03.400Z,7.9
2024-03-26T14:26:10.514Z,8
2024-03-26T14:27:17.610Z,8.1
2024-03-26T14:28:24.205Z,8.1
2024-03-26T14:29:31.260Z,8.1
2024-03-26T14:30:38.425Z,8.2
2024-03-26T14:31:45.526Z,8.2
2024-03-26T14:32:52.633Z,8.3
2024-03-26T14:33:59.246Z,8.4
2024-03-26T14:35:06.336Z,8.5
2024-03-26T14:36:15.616Z,8.5
2024-03-26T14:37:20.482Z,8.5
2024-03-26T14:38:27.663Z,8.5
2024-03-26T14:39:34.216Z,8.5
2024-03-26T14:40:41.302Z,8.5
2024-03-26T14:41:48.467Z,8.4
2024-03-26T14:42:55.547Z,8.4
2024-03-26T14:44:02.672Z,8.4
2024-03-26T14:45:09.275Z,8.4
2024-03-26T14:46:16.347Z,8.4
2024-03-26T14:47:23.381Z,8.4
2024-03-26T14:48:30.555Z,8.4
2024-03-26T14:49:37.635Z,8.3
2024-03-26T14:50:44.226Z,8.3
2024-03-26T14:51:51.335Z,8.3
2024-03-26T14:52:58.464Z,8.2
2024-03-26T14:54:05.605Z,8.2
2024-03-26T14:55:12.607Z,8.2
2024-03-26T14:56:19.259Z,8.1
2024-03-26T14:57:26.452Z,8.1
2024-03-26T14:58:33.416Z,8
2024-03-26T14:59:40.566Z,7.9
2024-03-26T15:00:47.647Z,7.9
2024-03-26T15:01:54.282Z,7.8
2024-03-26T15:03:01.366Z,7.7
2024-03-26T15:04:08.506Z,7.7
2024-03-26T15:05:15.607Z,7.7
2024-03-26T15:06:22.147Z,7.6
2024-03-26T15:07:29.281Z,7.7
2024-03-26T15:08:36.417Z,7.7
2024-03-26T15:09:43.417Z,7.7
2024-03-26T15:10:50.614Z,7.8
2024-03-26T15:11:57.199Z,7.8
2024-03-26T15:13:04.265Z,7.8
2024-03-26T15:14:11.314Z,7.8
2024-03-26T15:15:18.503Z,7.9
2024-03-26T15:16:25.601Z,7.9
2024-03-26T15:17:32.811Z,7.8
2024-03-26T15:18:39.423Z,7.7
2024-03-26T15:19:48.060Z,7.6
2024-03-26T15:20:53.474Z,7.5
2024-03-26T15:23:07.182Z,7.3
2024-03-26T15:24:14.314Z,7.3
2024-03-26T15:25:21.444Z,7.3
2024-03-26T15:26:28.526Z,7.3
2024-03-26T15:27:35.738Z,7.3
2024-03-26T15:28:42.202Z,7.2
2024-03-26T15:29:49.321Z,7.2
2024-03-26T15:30:56.448Z,7.1
2024-03-26T15:32:03.458Z,7
2024-03-26T15:33:10.616Z,7
2024-03-26T15:34:17.216Z,7.1
2024-03-26T15:35:24.304Z,7.1
2024-03-26T15:36:31.427Z,7
2024-03-26T15:37:38.534Z,7
2024-03-26T15:38:45.666Z,7
2024-03-26T15:39:52.256Z,7
2024-03-26T15:40:59.350Z,6.9
2024-03-26T15:42:06.501Z,6.9